Time;durP1;ratioP1;P1;durP2;ratioP2;P2;SDS_P1;SDS_P2;PMS_P1;PMS_P2;Temp;Humidity;BMP_temperature;BMP_pressure;BME280_temperature;BME280_humidity;BME280_pressure;Samples;Min_cycle;Max_cycle;Signal;HPM_P1;HPM_P2
2022/12/20 00:01:33;;;;;;;5.63;1.67;;;10.80;99.90;;;;;;5056546;28;20455;-84
2022/12/20 00:04:02;;;;;;;3.90;1.80;;;11.00;99.90;;;;;;5056554;28;20490;-84
2022/12/20 00:06:29;;;;;;;4.10;2.03;;;11.10;99.90;;;;;;5056216;28;20472;-84
2022/12/20 00:08:57;;;;;;;4.17;1.80;;;11.00;99.90;;;;;;5057227;28;20451;-83
2022/12/20 00:11:26;;;;;;;4.73;1.93;;;11.00;99.90;;;;;;5055972;28;20451;-83
2022/12/20 00:13:53;;;;;;;4.93;1.90;;;10.90;99.90;;;;;;5056437;28;20840;-83
2022/12/20 00:16:22;;;;;;;5.30;1.87;;;10.80;99.90;;;;;;5056207;28;20459;-84
2022/12/20 00:18:51;;;;;;;11.03;2.23;;;10.80;99.90;;;;;;5056883;28;20459;-84
2022/12/20 00:21:19;;;;;;;4.20;1.77;;;10.80;99.90;;;;;;5056010;28;20451;-83
2022/12/20 00:23:45;;;;;;;5.80;2.10;;;10.80;99.90;;;;;;5056021;28;20894;-83
2022/12/20 00:26:14;;;;;;;7.30;2.13;;;10.70;99.90;;;;;;5056059;28;20960;-83
2022/12/20 00:28:42;;;;;;;4.40;1.97;;;10.70;99.90;;;;;;5056170;28;20936;-82
2022/12/20 00:31:11;;;;;;;5.37;2.23;;;10.80;99.90;;;;;;5055617;28;20940;-83
2022/12/20 00:33:39;;;;;;;6.47;2.33;;;10.70;99.90;;;;;;5055594;28;20454;-83
2022/12/20 00:36:07;;;;;;;7.60;2.10;;;10.70;99.90;;;;;;5056285;28;20455;-83
2022/12/20 00:38:35;;;;;;;4.20;2.13;;;10.70;99.90;;;;;;5055541;28;20521;-83
2022/12/20 00:41:03;;;;;;;4.33;2.20;;;10.60;99.90;;;;;;5055603;28;20836;-84
2022/12/20 00:43:30;;;;;;;5.57;2.57;;;10.40;99.90;;;;;;5055822;28;21026;-84
2022/12/20 00:45:59;;;;;;;3.97;1.90;;;10.30;99.90;;;;;;5055354;28;20455;-83
2022/12/20 00:48:26;;;;;;;4.90;2.40;;;10.20;99.90;;;;;;5055158;28;20475;-83
2022/12/20 00:50:57;;;;;;;5.20;2.20;;;10.20;99.90;;;;;;5055163;28;20822;-83
2022/12/20 00:53:24;;;;;;;3.70;1.83;;;10.40;99.90;;;;;;5055871;28;20479;-83
2022/12/20 00:55:51;;;;;;;7.47;2.23;;;10.40;99.90;;;;;;5055054;28;20459;-83
2022/12/20 00:58:17;;;;;;;6.20;2.53;;;10.40;99.90;;;;;;5055132;28;21006;-83
2022/12/20 01:00:44;;;;;;;3.80;1.93;;;10.40;99.90;;;;;;5055444;28;20462;-82
2022/12/20 01:03:13;;;;;;;4.30;2.07;;;10.10;99.90;;;;;;5055677;28;20479;-83
2022/12/20 01:05:39;;;;;;;4.60;2.70;;;10.00;99.90;;;;;;5055505;28;20994;-82
2022/12/20 01:08:07;;;;;;;5.33;2.00;;;9.80;99.90;;;;;;5055669;28;20475;-83
2022/12/20 01:10:34;;;;;;;6.60;2.10;;;9.80;99.90;;;;;;5055086;28;20455;-83
2022/12/20 01:13:00;;;;;;;5.30;2.30;;;9.90;99.90;;;;;;5054295;28;20455;-83
2022/12/20 01:15:27;;;;;;;10.30;2.80;;;9.80;99.90;;;;;;5056099;28;21106;-83
2022/12/20 01:17:54;;;;;;;5.67;2.17;;;9.60;99.90;;;;;;5055639;28;20471;-83
2022/12/20 01:20:22;;;;;;;4.47;2.00;;;9.50;99.90;;;;;;5054829;28;20447;-82
2022/12/20 01:22:49;;;;;;;7.53;2.90;;;9.60;99.90;;;;;;5055235;28;20458;-83
2022/12/20 01:25:16;;;;;;;5.63;2.33;;;9.60;99.90;;;;;;5055248;28;20509;-83
2022/12/20 01:27:43;;;;;;;4.60;2.43;;;9.40;99.90;;;;;;5055066;28;20479;-83
2022/12/20 01:30:11;;;;;;;5.00;2.90;;;9.40;99.90;;;;;;5055547;28;20805;-82
2022/12/20 01:32:38;;;;;;;5.73;2.77;;;9.50;99.90;;;;;;5055139;28;20459;-83
2022/12/20 01:35:05;;;;;;;5.50;2.30;;;9.50;99.90;;;;;;5055581;28;20839;-83
2022/12/20 01:37:33;;;;;;;4.50;2.60;;;9.40;99.90;;;;;;5055170;28;20478;-83
2022/12/20 01:40:00;;;;;;;11.83;3.03;;;9.60;99.90;;;;;;5055071;28;20459;-83
2022/12/20 01:42:27;;;;;;;5.80;2.40;;;9.70;99.90;;;;;;5055707;28;20462;-84
2022/12/20 01:44:59;;;;;;;4.57;2.50;;;9.80;99.90;;;;;;5055354;28;20856;-83
2022/12/20 01:47:29;;;;;;;5.10;2.70;;;10.00;99.90;;;;;;5055031;28;20476;-83
2022/12/20 01:49:59;;;;;;;8.27;2.50;;;10.00;99.90;;;;;;5055762;28;20828;-83
2022/12/20 01:52:32;;;;;;;5.10;2.50;;;10.10;99.90;;;;;;5055245;28;20833;-82
2022/12/20 01:55:05;;;;;;;11.23;2.70;;;10.10;99.90;;;;;;5054988;28;20458;-83
2022/12/20 01:57:37;;;;;;;5.17;2.27;;;10.10;99.90;;;;;;5055517;28;20467;-84
2022/12/20 02:00:07;;;;;;;7.60;2.33;;;10.40;99.90;;;;;;5055024;28;20451;-84
2022/12/20 02:02:34;;;;;;;11.13;2.80;;;10.40;99.90;;;;;;5054604;28;20482;-83
2022/12/20 02:05:00;;;;;;;4.13;2.07;;;10.40;99.90;;;;;;5055084;28;20479;-83
2022/12/20 02:07:30;;;;;;;5.90;2.60;;;10.50;99.90;;;;;;5055900;28;20471;-83
2022/12/20 02:10:00;;;;;;;9.10;2.97;;;10.50;99.90;;;;;;5059245;28;20838;-83
2022/12/20 02:12:31;;;;;;;5.30;2.70;;;10.40;99.90;;;;;;5058144;28;20455;-82
2022/12/20 02:15:11;;;;;;;6.03;2.73;;;10.40;99.90;;;;;;5058452;28;20455;-83
2022/12/20 02:17:49;;;;;;;6.20;3.13;;;10.30;99.90;;;;;;5058675;28;20542;-82
2022/12/20 02:20:54;;;;;;;6.50;3.30;;;10.00;99.90;;;;;;5058740;28;20459;-83
2022/12/20 02:23:59;;;;;;;7.87;3.17;;;10.00;99.90;;;;;;5057894;28;20478;-83
2022/12/20 02:26:47;;;;;;;7.03;3.53;;;10.00;99.90;;;;;;5058920;28;20522;-83
2022/12/20 02:29:25;;;;;;;7.13;2.80;;;10.00;99.90;;;;;;5024915;28;20458;-83
2022/12/20 02:31:57;;;;;;;8.23;3.10;;;10.10;99.90;;;;;;5058124;28;20454;-84
2022/12/20 02:34:25;;;;;;;6.37;3.27;;;10.10;99.90;;;;;;5058082;28;20478;-83
2022/12/20 02:36:52;;;;;;;5.70;2.77;;;10.10;99.90;;;;;;5057822;28;21003;-83
2022/12/20 02:39:19;;;;;;;6.53;3.53;;;9.80;99.90;;;;;;5057995;28;20833;-83
2022/12/20 02:41:51;;;;;;;5.70;3.20;;;9.60;99.90;;;;;;5057912;28;20455;-83
2022/12/20 02:47:11;;;;;;;7.30;4.00;;;9.10;99.90;;;;;;5058286;28;20588;-83
2022/12/20 02:49:41;;;;;;;8.97;5.03;;;9.10;99.90;;;;;;5057967;28;20459;-83
2022/12/20 02:52:09;;;;;;;11.47;5.40;;;9.00;99.90;;;;;;5058325;28;20805;-83
2022/12/20 02:54:37;;;;;;;6.40;5.43;;;8.90;99.90;;;;;;5058341;28;20824;-83
2022/12/20 02:57:10;;;;;;;7.40;6.60;;;8.90;99.90;;;;;;5058458;28;20480;-83
2022/12/20 02:59:42;;;;;;;9.70;8.83;;;8.80;99.90;;;;;;5057831;28;20459;-83
2022/12/20 03:02:12;;;;;;;14.37;13.07;;;8.70;99.90;;;;;;5057575;28;20455;-83
2022/12/20 03:04:40;;;;;;;20.10;19.00;;;8.50;99.90;;;;;;5057620;28;20482;-82
2022/12/20 03:07:09;;;;;;;28.37;26.87;;;8.50;99.90;;;;;;5057532;28;20471;-83
2022/12/20 03:09:38;;;;;;;41.83;39.83;;;8.30;99.90;;;;;;5057145;28;20458;-82
2022/12/20 03:12:07;;;;;;;57.90;55.27;;;8.30;99.90;;;;;;5056927;28;20451;-82
2022/12/20 03:14:33;;;;;;;84.37;81.13;;;8.30;99.90;;;;;;5057848;28;20455;-82
2022/12/20 03:17:01;;;;;;;129.90;124.83;;;8.10;99.90;;;;;;5057243;28;20471;-82
2022/12/20 03:19:29;;;;;;;219.37;211.53;;;8.10;99.90;;;;;;5056788;28;20454;-81
2022/12/20 03:21:56;;;;;;;316.03;304.67;;;8.10;99.90;;;;;;5057731;28;20451;-79
2022/12/20 03:24:22;;;;;;;392.93;378.60;;;8.20;99.90;;;;;;5064145;28;20839;-80
2022/12/20 03:26:49;;;;;;;427.87;411.87;;;8.10;99.90;;;;;;5063999;28;20471;-79
2022/12/20 03:29:16;;;;;;;438.93;422.33;;;8.10;99.90;;;;;;5064392;28;20458;-79
2022/12/20 03:31:43;;;;;;;450.13;432.77;;;8.10;99.90;;;;;;5063312;28;20515;-81
2022/12/20 03:34:10;;;;;;;456.97;439.40;;;8.10;99.90;;;;;;5057241;28;20447;-81
2022/12/20 03:36:38;;;;;;;481.17;462.10;;;8.00;99.90;;;;;;5056211;28;20479;-81
2022/12/20 03:39:05;;;;;;;491.70;471.20;;;8.00;99.90;;;;;;5056472;28;20474;-81
2022/12/20 03:41:31;;;;;;;533.67;511.03;;;8.00;99.90;;;;;;5055919;28;20458;-81
2022/12/20 03:43:58;;;;;;;577.43;551.27;;;8.00;99.90;;;;;;5056543;28;20483;-81
2022/12/20 03:46:26;;;;;;;577.13;551.07;;;8.00;99.90;;;;;;5056053;28;20462;-81
2022/12/20 03:48:53;;;;;;;591.33;563.30;;;7.90;99.90;;;;;;5056090;28;20479;-80
2022/12/20 03:51:20;;;;;;;611.67;581.63;;;7.90;99.90;;;;;;5055894;28;20451;-81
2022/12/20 03:53:48;;;;;;;613.23;582.67;;;7.80;99.90;;;;;;5056012;28;20451;-81
2022/12/20 03:56:15;;;;;;;636.37;603.17;;;7.90;99.90;;;;;;5056030;28;20451;-80
2022/12/20 03:58:41;;;;;;;642.83;609.27;;;7.90;99.90;;;;;;5055918;28;20451;-80
2022/12/20 04:01:19;;;;;;;669.63;632.40;;;7.90;99.90;;;;;;5055787;28;20459;-81
2022/12/20 04:03:45;;;;;;;679.67;640.37;;;7.80;99.90;;;;;;5055728;28;20478;-80
2022/12/20 04:06:12;;;;;;;696.73;655.07;;;7.90;99.90;;;;;;5055822;28;20455;-81
2022/12/20 04:08:39;;;;;;;699.03;654.97;;;7.80;99.90;;;;;;5055872;28;20462;-80
2022/12/20 04:11:16;;;;;;;720.10;675.60;;;7.90;99.90;;;;;;5055389;28;20451;-80
2022/12/20 04:13:43;;;;;;;720.50;673.10;;;7.80;99.90;;;;;;5056467;28;20455;-82
2022/12/20 04:16:10;;;;;;;713.47;664.17;;;7.70;99.90;;;;;;5055590;28;20963;-80
2022/12/20 04:18:36;;;;;;;713.83;664.07;;;7.70;99.90;;;;;;5056377;28;20459;-80
2022/12/20 04:21:05;;;;;;;702.30;651.60;;;7.70;99.90;;;;;;5055986;28;20478;-81
2022/12/20 04:23:32;;;;;;;703.00;651.13;;;7.80;99.90;;;;;;5055370;28;20459;-80
2022/12/20 04:25:59;;;;;;;705.67;652.17;;;7.70;99.90;;;;;;5055697;28;20486;-81
2022/12/20 04:28:27;;;;;;;711.93;657.40;;;7.70;99.90;;;;;;5055530;28;20476;-80
2022/12/20 04:30:54;;;;;;;710.37;655.60;;;7.60;99.90;;;;;;5054737;28;20462;-80
2022/12/20 04:33:21;;;;;;;712.73;657.63;;;7.70;99.90;;;;;;5055219;28;20484;-80
2022/12/20 04:35:48;;;;;;;708.63;654.30;;;7.70;99.90;;;;;;5055322;28;20469;-80
2022/12/20 04:38:15;;;;;;;707.17;652.00;;;7.70;99.90;;;;;;5055264;28;20490;-80
2022/12/20 04:40:42;;;;;;;707.17;651.10;;;7.80;99.90;;;;;;5055807;28;20454;-80
2022/12/20 04:43:08;;;;;;;714.73;659.20;;;7.80;99.90;;;;;;5055744;28;20458;-80
2022/12/20 04:45:36;;;;;;;706.97;649.60;;;7.90;99.90;;;;;;5055730;28;20479;-81
2022/12/20 04:48:03;;;;;;;710.03;651.60;;;7.80;99.90;;;;;;5055955;28;20475;-81
2022/12/20 04:50:30;;;;;;;733.50;675.47;;;7.70;99.90;;;;;;5054245;28;20462;-80
2022/12/20 04:55:41;;;;;;;734.50;676.60;;;7.90;99.90;;;;;;5055749;28;20435;-81
2022/12/20 04:58:08;;;;;;;733.67;676.03;;;7.90;99.90;;;;;;5055151;28;20479;-81
2022/12/20 05:00:36;;;;;;;732.23;673.90;;;7.80;99.90;;;;;;5055228;28;20459;-82
2022/12/20 05:03:04;;;;;;;716.83;659.53;;;8.00;99.90;;;;;;5055211;28;20466;-81
2022/12/20 05:05:30;;;;;;;728.50;672.23;;;7.90;99.90;;;;;;5056039;28;20497;-81
2022/12/20 05:07:57;;;;;;;730.43;674.20;;;8.10;99.90;;;;;;5055711;28;20479;-79
2022/12/20 05:10:24;;;;;;;721.50;664.90;;;8.10;99.90;;;;;;5055451;28;20455;-81
2022/12/20 05:12:51;;;;;;;722.73;667.37;;;8.00;99.90;;;;;;5054749;28;20455;-81
2022/12/20 05:15:18;;;;;;;716.90;661.67;;;8.10;99.90;;;;;;5055659;28;20454;-81
2022/12/20 05:17:46;;;;;;;722.87;666.17;;;8.00;99.90;;;;;;5055708;28;20868;-81
2022/12/20 05:20:13;;;;;;;730.70;674.97;;;8.10;99.90;;;;;;5055518;28;20455;-81
2022/12/20 05:28:24;;;;;;;722.63;668.83;;;8.10;99.90;;;;;;5013256;28;20852;-81
2022/12/20 05:30:51;;;;;;;715.27;662.00;;;8.10;99.90;;;;;;5036370;28;20458;-82
2022/12/20 05:33:31;;;;;;;722.80;670.60;;;8.20;99.90;;;;;;5055915;28;20462;-81
2022/12/20 05:35:57;;;;;;;719.63;668.33;;;8.20;99.90;;;;;;5055170;28;20458;-82
2022/12/20 05:38:24;;;;;;;723.23;672.27;;;8.20;99.90;;;;;;5073566;23;20497;-84
2022/12/20 05:40:51;;;;;;;723.17;673.00;;;8.10;99.90;;;;;;5059734;28;20447;-84
2022/12/20 05:43:19;;;;;;;724.60;674.67;;;8.10;99.90;;;;;;5065431;28;20461;-84
2022/12/20 05:45:47;;;;;;;715.67;667.27;;;8.10;99.90;;;;;;5068643;28;20478;-84
2022/12/20 05:48:14;;;;;;;716.03;668.27;;;8.10;99.90;;;;;;5068548;28;20475;-85
2022/12/20 05:50:44;;;;;;;712.57;664.47;;;8.10;99.90;;;;;;5064011;28;20456;-84
2022/12/20 05:53:11;;;;;;;713.67;666.07;;;8.10;99.90;;;;;;5063541;28;20459;-84
2022/12/20 05:55:39;;;;;;;711.80;664.70;;;8.10;99.90;;;;;;5066584;28;20459;-83
2022/12/20 05:58:06;;;;;;;706.87;660.80;;;8.10;99.90;;;;;;5062227;28;20471;-83
2022/12/20 06:00:33;;;;;;;706.97;661.50;;;8.20;99.90;;;;;;5059276;28;20504;-84
2022/12/20 06:03:00;;;;;;;696.83;654.03;;;8.10;99.90;;;;;;5059293;28;20513;-83
2022/12/20 06:05:26;;;;;;;685.30;643.13;;;8.20;99.90;;;;;;5062472;28;20475;-84
2022/12/20 06:07:54;;;;;;;681.80;640.80;;;8.10;99.90;;;;;;5059394;28;20475;-83
2022/12/20 06:10:21;;;;;;;683.00;641.37;;;8.30;99.90;;;;;;5061818;28;20458;-84
2022/12/20 06:12:48;;;;;;;682.30;642.10;;;8.20;99.90;;;;;;5065663;28;20459;-84
2022/12/20 06:15:15;;;;;;;672.53;633.80;;;8.10;99.90;;;;;;5065438;28;20450;-83
2022/12/20 06:18:00;;;;;;;668.93;630.80;;;8.20;99.90;;;;;;5067640;28;20471;-81
2022/12/20 06:20:41;;;;;;;668.20;630.00;;;8.20;99.90;;;;;;5066317;28;20483;-84
2022/12/20 06:23:30;;;;;;;660.17;623.10;;;8.20;99.90;;;;;;5065575;28;20455;-84
2022/12/20 06:25:57;;;;;;;645.30;610.23;;;8.20;99.90;;;;;;5067545;28;20521;-84
2022/12/20 06:29:16;;;;;;;641.57;607.43;;;8.30;99.90;;;;;;5067512;28;20474;-83
2022/12/20 06:31:42;;;;;;;631.90;598.20;;;8.20;99.90;;;;;;5066593;28;20451;-83
2022/12/20 06:34:15;;;;;;;628.53;593.80;;;8.20;99.90;;;;;;5066654;28;20457;-83
2022/12/20 06:36:45;;;;;;;616.67;583.67;;;8.30;99.90;;;;;;5067020;28;20463;-83
2022/12/20 06:39:14;;;;;;;622.83;589.87;;;8.30;99.90;;;;;;5066819;28;20878;-82
2022/12/20 06:42:34;;;;;;;616.93;584.10;;;8.40;99.90;;;;;;5066037;28;20470;-83
2022/12/20 06:45:01;;;;;;;613.90;581.87;;;8.30;99.90;;;;;;5054967;28;20454;-83
2022/12/20 06:47:27;;;;;;;603.40;572.40;;;8.30;99.90;;;;;;5085092;28;20466;-83
2022/12/20 06:50:05;;;;;;;606.77;576.67;;;8.30;99.90;;;;;;5086114;28;20453;-83
2022/12/20 06:55:57;;;;;;;562.73;536.77;;;8.40;99.90;;;;;;4951145;28;20450;-84
2022/12/20 06:58:24;;;;;;;542.77;517.40;;;8.40;99.90;;;;;;5003135;28;20577;-84
2022/12/20 07:00:54;;;;;;;541.27;516.10;;;8.40;99.90;;;;;;5003168;28;20454;-83
2022/12/20 07:03:20;;;;;;;546.47;521.63;;;8.40;99.90;;;;;;5073441;28;20534;-83
2022/12/20 07:05:51;;;;;;;545.57;520.60;;;8.40;99.90;;;;;;5084974;28;20474;-83
2022/12/20 07:08:18;;;;;;;542.20;516.77;;;8.40;99.90;;;;;;5084527;28;20573;-84
2022/12/20 07:10:45;;;;;;;537.07;512.07;;;8.50;99.90;;;;;;5082943;28;20871;-83
2022/12/20 07:16:49;;;;;;;521.00;498.10;;;8.60;99.90;;;;;;5015127;28;20461;-84
2022/12/20 07:19:22;;;;;;;521.13;497.83;;;8.50;99.90;;;;;;5066014;28;20476;-83
2022/12/20 07:21:50;;;;;;;528.47;505.07;;;8.50;99.90;;;;;;5080050;28;20455;-82
2022/12/20 07:24:17;;;;;;;547.57;522.50;;;8.60;99.90;;;;;;5080755;28;20450;-84
2022/12/20 07:26:44;;;;;;;557.90;532.03;;;8.60;99.90;;;;;;5080229;28;20485;-82
2022/12/20 07:29:12;;;;;;;560.63;534.93;;;8.40;99.90;;;;;;5080409;28;20451;-82
2022/12/20 07:31:39;;;;;;;563.90;537.60;;;8.50;99.90;;;;;;5080703;28;20461;-82
2022/12/20 07:34:06;;;;;;;554.30;529.90;;;8.40;99.90;;;;;;5080182;28;20454;-82
2022/12/20 07:36:32;;;;;;;548.90;524.47;;;8.40;99.90;;;;;;5080295;28;20450;-83
2022/12/20 07:38:59;;;;;;;553.13;527.83;;;8.40;99.90;;;;;;5080949;28;20846;-83
2022/12/20 07:41:26;;;;;;;556.40;530.53;;;8.30;99.90;;;;;;5080910;28;20462;-84
2022/12/20 07:43:53;;;;;;;568.20;541.87;;;8.20;99.90;;;;;;5081352;28;20946;-82
2022/12/20 07:49:14;;;;;;;572.83;545.70;;;8.20;99.90;;;;;;5173780;23;20493;-82
2022/12/20 07:51:45;;;;;;;564.63;537.77;;;8.20;99.90;;;;;;5078241;28;20874;-84
2022/12/20 07:54:44;;;;;;;572.10;544.27;;;8.20;99.90;;;;;;5081355;28;20462;-83
2022/12/20 07:57:54;;;;;;;573.97;545.07;;;8.20;99.90;;;;;;4958806;29;20559;-83
2022/12/20 08:00:21;;;;;;;587.57;558.27;;;8.20;99.90;;;;;;5027016;28;20454;-83
2022/12/20 08:03:08;;;;;;;589.30;560.07;;;8.30;99.90;;;;;;5060932;28;20963;-83
2022/12/20 08:06:03;;;;;;;588.07;558.27;;;8.30;99.90;;;;;;5059706;28;20471;-83
2022/12/20 08:08:31;;;;;;;582.40;552.80;;;8.30;99.90;;;;;;5061078;28;20513;-83
2022/12/20 08:10:59;;;;;;;575.33;546.50;;;8.40;99.90;;;;;;5060846;28;20451;-83
2022/12/20 08:13:25;;;;;;;567.37;539.50;;;8.40;99.90;;;;;;5063431;28;20451;-83
2022/12/20 08:15:52;;;;;;;568.10;540.40;;;8.40;99.90;;;;;;5063676;28;20470;-84
2022/12/20 08:18:31;;;;;;;559.13;532.43;;;8.40;99.90;;;;;;5063135;28;20743;-83
2022/12/20 08:20:57;;;;;;;530.47;506.17;;;8.50;99.90;;;;;;5063031;28;20474;-83
2022/12/20 08:23:24;;;;;;;519.57;496.07;;;8.60;99.90;;;;;;5062712;28;20451;-86
2022/12/20 08:25:51;;;;;;;492.10;470.50;;;8.60;99.90;;;;;;5062602;28;20479;-84
2022/12/20 08:28:22;;;;;;;466.53;446.53;;;8.70;99.90;;;;;;5062625;28;20479;-83
2022/12/20 08:31:13;;;;;;;461.23;441.70;;;8.70;99.90;;;;;;5060900;28;20546;-83
2022/12/20 08:33:41;;;;;;;441.00;423.10;;;8.80;99.90;;;;;;5061208;28;20943;-84
2022/12/20 08:36:14;;;;;;;430.53;413.53;;;8.70;99.90;;;;;;5058417;28;20470;-83
2022/12/20 08:38:41;;;;;;;404.70;389.40;;;8.80;99.90;;;;;;5061212;28;20474;-83
2022/12/20 08:41:10;;;;;;;368.03;354.23;;;8.80;99.90;;;;;;5060223;28;20448;-83
2022/12/20 08:43:37;;;;;;;366.00;352.30;;;8.80;99.90;;;;;;5061004;28;20455;-83
2022/12/20 08:46:05;;;;;;;347.47;334.60;;;8.90;99.90;;;;;;5057129;28;20475;-82
2022/12/20 08:48:32;;;;;;;344.03;331.33;;;8.90;99.90;;;;;;5056343;28;20483;-80
2022/12/20 08:51:08;;;;;;;322.63;310.83;;;8.90;99.90;;;;;;5056872;28;20902;-80
2022/12/20 08:53:38;;;;;;;297.60;286.70;;;8.90;99.90;;;;;;5056578;28;20455;-83
2022/12/20 08:56:06;;;;;;;301.30;290.27;;;8.90;99.90;;;;;;5056821;28;20948;-82
2022/12/20 08:58:33;;;;;;;299.73;289.00;;;9.10;99.90;;;;;;5056193;28;20471;-82
2022/12/20 09:01:09;;;;;;;280.30;270.13;;;9.00;99.90;;;;;;5056462;28;20462;-82
2022/12/20 09:03:37;;;;;;;288.03;277.87;;;9.00;99.90;;;;;;5056598;28;20956;-81
2022/12/20 09:06:08;;;;;;;275.80;265.30;;;9.10;99.90;;;;;;5056697;28;20483;-82
2022/12/20 09:08:35;;;;;;;269.23;259.70;;;9.00;99.90;;;;;;5056490;28;20492;-82
2022/12/20 09:11:06;;;;;;;261.07;252.17;;;8.90;99.90;;;;;;5055642;28;20451;-82
2022/12/20 09:13:32;;;;;;;243.67;235.07;;;9.00;99.90;;;;;;5056824;28;20457;-83
2022/12/20 09:16:01;;;;;;;246.53;238.17;;;9.00;99.90;;;;;;5074277;28;20961;-81
2022/12/20 09:18:27;;;;;;;256.73;248.03;;;9.00;99.90;;;;;;5074506;28;20466;-81
2022/12/20 09:20:54;;;;;;;252.10;243.20;;;9.00;99.90;;;;;;5075713;28;20458;-82
2022/12/20 09:23:25;;;;;;;259.10;249.43;;;9.00;99.90;;;;;;5076775;28;20461;-84
2022/12/20 09:25:52;;;;;;;258.73;249.55;;;9.00;99.90;;;;;;5076072;28;20454;-82
2022/12/20 09:28:20;;;;;;;240.73;232.27;;;9.00;99.90;;;;;;5076543;28;20594;-82
2022/12/20 09:30:47;;;;;;;236.87;228.57;;;8.90;99.90;;;;;;5075562;28;20972;-83
2022/12/20 09:33:14;;;;;;;228.03;220.47;;;9.00;99.90;;;;;;5076229;28;20454;-82
2022/12/20 09:35:47;;;;;;;284.90;275.10;;;9.00;99.90;;;;;;5077295;28;20459;-83
2022/12/20 09:38:15;;;;;;;276.40;266.67;;;9.00;99.90;;;;;;5076233;28;20485;-81
2022/12/20 09:40:49;;;;;;;250.50;241.60;;;9.20;99.90;;;;;;5076753;28;20458;-82
2022/12/20 09:43:18;;;;;;;237.43;229.03;;;9.30;99.90;;;;;;5076579;28;20454;-82
2022/12/20 09:45:51;;;;;;;194.00;186.90;;;9.40;99.90;;;;;;5076172;28;20891;-82
2022/12/20 09:48:21;;;;;;;183.93;177.27;;;9.40;99.90;;;;;;5076166;28;20494;-81
2022/12/20 09:50:58;;;;;;;177.37;171.07;;;9.50;99.90;;;;;;5076582;28;20799;-81
2022/12/20 09:53:35;;;;;;;195.50;188.70;;;9.40;99.90;;;;;;5076019;28;20453;-81
2022/12/20 09:56:10;;;;;;;238.70;229.83;;;9.40;99.90;;;;;;5075475;28;20435;-81
2022/12/20 09:58:58;;;;;;;257.80;248.83;;;9.50;99.90;;;;;;5075449;28;20466;-81
2022/12/20 10:01:27;;;;;;;247.57;238.60;;;9.40;99.90;;;;;;5075388;28;20947;-81
2022/12/20 10:03:55;;;;;;;297.80;286.90;;;9.30;99.90;;;;;;5075744;28;20458;-80
2022/12/20 10:06:30;;;;;;;296.13;285.20;;;9.50;99.90;;;;;;5075806;28;20480;-81
2022/12/20 10:09:01;;;;;;;294.87;283.63;;;9.40;99.90;;;;;;5075800;28;20459;-81
2022/12/20 10:11:49;;;;;;;261.03;250.90;;;9.50;99.90;;;;;;5075765;28;20831;-81
2022/12/20 10:14:33;;;;;;;240.00;231.20;;;9.50;99.90;;;;;;5076012;28;20466;-81
2022/12/20 10:17:05;;;;;;;249.50;240.40;;;9.60;99.90;;;;;;5075277;28;20531;-81
2022/12/20 10:19:50;;;;;;;238.10;229.30;;;9.50;99.90;;;;;;5075712;28;20474;-81
2022/12/20 10:22:25;;;;;;;242.47;233.07;;;9.50;99.90;;;;;;5075630;28;20737;-81
2022/12/20 10:24:58;;;;;;;284.10;273.70;;;9.60;99.90;;;;;;5075784;28;20460;-81
2022/12/20 10:27:27;;;;;;;285.50;275.17;;;9.50;99.90;;;;;;5075862;28;20486;-81
2022/12/20 10:29:54;;;;;;;261.40;251.87;;;9.60;99.90;;;;;;5079036;28;20914;-81
2022/12/20 10:32:23;;;;;;;257.27;247.70;;;9.60;99.90;;;;;;5079232;28;20457;-81
2022/12/20 10:34:55;;;;;;;273.47;263.67;;;9.60;99.90;;;;;;5079288;28;20458;-83
2022/12/20 10:37:22;;;;;;;245.30;236.90;;;9.60;99.90;;;;;;5078862;28;20467;-81
2022/12/20 10:39:51;;;;;;;238.97;230.57;;;9.60;99.90;;;;;;5080193;28;20516;-81
2022/12/20 10:42:30;;;;;;;264.70;255.30;;;9.60;99.90;;;;;;5079374;28;20457;-81
2022/12/20 10:44:57;;;;;;;261.23;251.93;;;9.70;99.90;;;;;;5080331;28;20833;-81
2022/12/20 10:47:38;;;;;;;249.23;240.50;;;9.60;99.90;;;;;;5079226;28;20485;-83
2022/12/20 10:50:13;;;;;;;260.97;251.47;;;9.60;99.90;;;;;;5079998;28;20973;-81
2022/12/20 10:52:39;;;;;;;271.67;262.17;;;9.70;99.90;;;;;;5079621;28;20460;-81
2022/12/20 10:55:34;;;;;;;268.17;258.83;;;9.80;99.90;;;;;;5079406;28;20454;-81
2022/12/20 10:58:05;;;;;;;276.67;266.47;;;9.90;99.90;;;;;;5078692;28;20541;-79
2022/12/20 11:00:32;;;;;;;226.20;218.40;;;10.10;99.90;;;;;;5080086;28;20455;-82
2022/12/20 11:03:10;;;;;;;197.47;190.70;;;10.30;99.90;;;;;;5079869;28;20450;-84
2022/12/20 11:05:42;;;;;;;161.90;156.00;;;10.30;99.90;;;;;;5079460;28;20884;-82
2022/12/20 11:08:25;;;;;;;126.80;122.17;;;10.50;99.90;;;;;;5079884;28;20480;-81
2022/12/20 11:11:12;;;;;;;102.67;98.90;;;10.50;99.90;;;;;;5080153;28;20465;-83
2022/12/20 11:13:46;;;;;;;89.07;85.63;;;10.40;99.90;;;;;;5081060;28;20454;-82
2022/12/20 11:16:31;;;;;;;81.63;78.50;;;10.50;99.90;;;;;;5080607;28;20454;-82
2022/12/20 11:19:27;;;;;;;64.53;61.83;;;10.50;99.90;;;;;;5080372;28;20533;-82
2022/12/20 11:22:00;;;;;;;56.07;53.70;;;10.40;99.90;;;;;;5080283;28;20467;-81
2022/12/20 11:24:34;;;;;;;59.93;57.23;;;10.40;99.90;;;;;;5079204;28;20508;-83
2022/12/20 11:27:16;;;;;;;46.07;43.70;;;10.30;99.90;;;;;;5080099;28;20502;-81
2022/12/20 11:30:05;;;;;;;47.53;45.43;;;10.30;99.90;;;;;;5079638;28;20486;-82
2022/12/20 11:32:52;;;;;;;61.83;59.23;;;10.20;99.90;;;;;;5079740;28;20457;-81
2022/12/20 11:35:22;;;;;;;53.27;50.87;;;10.30;99.90;;;;;;5079721;28;20451;-81
2022/12/20 11:38:01;;;;;;;32.50;30.80;;;10.30;99.90;;;;;;5081512;28;20475;-81
2022/12/20 11:40:32;;;;;;;17.13;16.13;;;10.70;99.90;;;;;;5078010;28;20463;-82
2022/12/20 11:43:15;;;;;;;15.80;14.67;;;11.00;99.90;;;;;;5079215;28;20958;-81
2022/12/20 11:45:59;;;;;;;12.03;11.13;;;11.40;99.90;;;;;;5079255;28;20458;-82
2022/12/20 11:48:40;;;;;;;10.40;9.53;;;11.50;99.90;;;;;;5079249;28;20489;-81
2022/12/20 11:51:19;;;;;;;9.00;8.20;;;11.70;99.90;;;;;;5078827;28;20450;-81
2022/12/20 11:53:55;;;;;;;5.97;5.13;;;11.80;99.90;;;;;;5078975;28;20452;-81
2022/12/20 11:56:37;;;;;;;6.50;3.70;;;11.70;99.90;;;;;;5079761;28;20453;-81
2022/12/20 11:59:10;;;;;;;5.90;4.13;;;11.60;99.90;;;;;;5078906;28;20450;-80
2022/12/20 12:01:43;;;;;;;5.77;3.20;;;11.60;99.90;;;;;;5079566;28;20824;-81
2022/12/20 12:04:15;;;;;;;7.87;2.80;;;11.50;99.90;;;;;;5079133;28;20454;-82
2022/12/20 12:06:46;;;;;;;6.40;2.67;;;11.70;99.90;;;;;;5079046;28;20475;-81
2022/12/20 12:09:22;;;;;;;10.53;2.70;;;11.70;99.90;;;;;;5078818;28;20447;-81
2022/12/20 12:11:52;;;;;;;9.10;2.50;;;11.90;99.90;;;;;;5059662;28;20451;-82
2022/12/20 12:14:35;;;;;;;17.73;3.10;;;12.10;99.90;;;;;;5058179;28;20447;-81
2022/12/20 12:17:09;;;;;;;6.97;2.60;;;12.30;99.90;;;;;;5060438;28;20858;-81
2022/12/20 12:19:40;;;;;;;6.50;2.03;;;12.40;99.90;;;;;;5067130;28;20446;-83
2022/12/20 12:22:13;;;;;;;8.40;2.53;;;12.50;99.90;;;;;;5067899;28;20466;-81
2022/12/20 12:24:43;;;;;;;14.73;2.73;;;12.60;99.90;;;;;;5068455;28;20458;-82
2022/12/20 12:27:15;;;;;;;16.33;3.27;;;12.70;99.90;;;;;;5069133;28;20522;-81
2022/12/20 12:29:42;;;;;;;15.00;3.10;;;12.60;99.90;;;;;;5068125;28;20454;-82
2022/12/20 12:32:17;;;;;;;17.83;4.00;;;12.30;99.90;;;;;;5068350;28;20452;-81
2022/12/20 12:34:59;;;;;;;8.73;2.57;;;12.20;99.90;;;;;;5067323;28;20451;-81
2022/12/20 12:37:53;;;;;;;10.30;2.90;;;12.10;99.90;;;;;;5068793;28;20463;-79
2022/12/20 12:40:57;;;;;;;5.93;3.30;;;11.90;99.90;;;;;;5067251;28;20543;-79
2022/12/20 12:43:45;;;;;;;11.53;5.70;;;11.90;99.90;;;;;;5058963;28;20459;-82
2022/12/20 12:46:15;;;;;;;10.70;9.43;;;11.80;99.90;;;;;;5066478;28;20452;-80
2022/12/20 12:48:49;;;;;;;8.90;8.20;;;11.70;99.90;;;;;;5069011;28;20483;-79
2022/12/20 12:51:21;;;;;;;7.97;7.23;;;11.60;99.90;;;;;;5070867;28;20448;-80
2022/12/20 12:53:51;;;;;;;9.10;7.70;;;11.50;99.90;;;;;;5070772;28;20459;-82
2022/12/20 12:56:41;;;;;;;11.13;7.50;;;11.50;99.90;;;;;;5068661;28;20454;-80
2022/12/20 12:59:19;;;;;;;12.70;4.90;;;11.50;99.90;;;;;;5070299;28;20450;-82
2022/12/20 13:01:52;;;;;;;6.43;5.60;;;11.60;99.90;;;;;;5068012;28;20455;-80
2022/12/20 13:04:28;;;;;;;8.33;7.70;;;11.40;99.90;;;;;;5069155;28;20458;-81
2022/12/20 13:06:58;;;;;;;8.10;7.50;;;11.10;99.90;;;;;;5066051;28;20509;-81
2022/12/20 13:09:46;;;;;;;10.97;10.03;;;11.10;99.90;;;;;;5067175;28;20446;-79
2022/12/20 13:12:52;;;;;;;11.30;10.60;;;10.90;99.90;;;;;;5064826;28;20890;-80